sensor_id;sensor_type;location;lat;lon;timestamp;temperature;humidity
21267;DHT22;10791;53.108;18.326;2024-01-10T00:04:41;-5.20;99.90
21267;DHT22;10791;53.108;18.326;2024-01-10T00:09:44;-5.10;99.90
21267;DHT22;10791;53.108;18.326;2024-01-10T00:14:48;-5.10;99.90
21267;DHT22;10791;53.108;18.326;2024-01-10T00:19:51;-5.10;99.90
21267;DHT22;10791;53.108;18.326;2024-01-10T00:24:55;-5.10;99.90
21267;DHT22;10791;53.108;18.326;2024-01-10T00:29:58;-5.00;99.90
21267;DHT22;10791;53.108;18.326;2024-01-10T00:35:01;-5.00;99.90
21267;DHT22;10791;53.108;18.326;2024-01-10T00:40:05;-4.90;99.90
21267;DHT22;10791;53.108;18.326;2024-01-10T00:45:08;-4.90;99.90
21267;DHT22;10791;53.108;18.326;2024-01-10T00:50:11;-4.80;99.90
21267;DHT22;10791;53.108;18.326;2024-01-10T00:55:15;-4.70;99.90
21267;DHT22;10791;53.108;18.326;2024-01-10T01:00:18;-4.70;99.90
21267;DHT22;10791;53.108;18.326;2024-01-10T01:05:21;-4.60;99.90
21267;DHT22;10791;53.108;18.326;2024-01-10T01:10:25;-4.50;99.90
21267;DHT22;10791;53.108;18.326;2024-01-10T01:15:28;-4.50;99.90
21267;DHT22;10791;53.108;18.326;2024-01-10T01:20:32;-4.40;99.90
21267;DHT22;10791;53.108;18.326;2024-01-10T01:25:35;-4.40;99.90
21267;DHT22;10791;53.108;18.326;2024-01-10T01:30:38;-4.40;99.90
21267;DHT22;10791;53.108;18.326;2024-01-10T01:35:42;-4.40;99.90
21267;DHT22;10791;53.108;18.326;2024-01-10T01:40:45;-4.40;99.90
21267;DHT22;10791;53.108;18.326;2024-01-10T01:45:51;-4.30;99.90
21267;DHT22;10791;53.108;18.326;2024-01-10T01:50:58;-4.30;99.90
21267;DHT22;10791;53.108;18.326;2024-01-10T01:56:06;-4.20;99.90
21267;DHT22;10791;53.108;18.326;2024-01-10T02:01:10;-4.20;99.90
21267;DHT22;10791;53.108;18.326;2024-01-10T02:06:14;-4.10;99.90
21267;DHT22;10791;53.108;18.326;2024-01-10T02:11:19;-4.10;99.90
21267;DHT22;10791;53.108;18.326;2024-01-10T02:16:24;-4.00;99.90
21267;DHT22;10791;53.108;18.326;2024-01-10T02:21:27;-4.00;99.90
21267;DHT22;10791;53.108;18.326;2024-01-10T02:26:30;-3.90;99.90
21267;DHT22;10791;53.108;18.326;2024-01-10T02:31:34;-3.80;99.90
21267;DHT22;10791;53.108;18.326;2024-01-10T02:36:37;-3.80;99.90
21267;DHT22;10791;53.108;18.326;2024-01-10T02:41:40;-3.80;99.90
21267;DHT22;10791;53.108;18.326;2024-01-10T02:46:43;-3.70;99.90
21267;DHT22;10791;53.108;18.326;2024-01-10T02:51:46;-3.70;99.90
21267;DHT22;10791;53.108;18.326;2024-01-10T02:56:49;-3.60;99.90
21267;DHT22;10791;53.108;18.326;2024-01-10T03:01:52;-3.60;99.90
21267;DHT22;10791;53.108;18.326;2024-01-10T03:06:56;-3.60;99.90
21267;DHT22;10791;53.108;18.326;2024-01-10T03:11:59;-3.50;99.90
21267;DHT22;10791;53.108;18.326;2024-01-10T03:17:02;-3.50;99.90
21267;DHT22;10791;53.108;18.326;2024-01-10T03:22:05;-3.50;99.90
21267;DHT22;10791;53.108;18.326;2024-01-10T03:27:09;-3.50;99.90
21267;DHT22;10791;53.108;18.326;2024-01-10T03:32:12;-3.50;99.90
21267;DHT22;10791;53.108;18.326;2024-01-10T03:37:16;-3.50;99.90
21267;DHT22;10791;53.108;18.326;2024-01-10T03:42:19;-3.50;99.90
21267;DHT22;10791;53.108;18.326;2024-01-10T03:47:23;-3.40;99.90
21267;DHT22;10791;53.108;18.326;2024-01-10T03:52:26;-3.30;99.90
21267;DHT22;10791;53.108;18.326;2024-01-10T03:57:29;-3.30;99.90
21267;DHT22;10791;53.108;18.326;2024-01-10T04:02:32;-3.30;99.90
21267;DHT22;10791;53.108;18.326;2024-01-10T04:07:36;-3.20;99.90
21267;DHT22;10791;53.108;18.326;2024-01-10T04:12:45;-3.20;99.90
21267;DHT22;10791;53.108;18.326;2024-01-10T04:17:48;-3.10;99.90
21267;DHT22;10791;53.108;18.326;2024-01-10T04:22:51;-3.10;99.90
21267;DHT22;10791;53.108;18.326;2024-01-10T04:27:56;-3.10;99.90
21267;DHT22;10791;53.108;18.326;2024-01-10T04:33:00;-3.00;99.90
21267;DHT22;10791;53.108;18.326;2024-01-10T04:38:04;-3.10;99.90
21267;DHT22;10791;53.108;18.326;2024-01-10T04:43:07;-3.00;99.90
21267;DHT22;10791;53.108;18.326;2024-01-10T04:48:11;-3.10;99.90
21267;DHT22;10791;53.108;18.326;2024-01-10T04:53:14;-3.20;99.90
21267;DHT22;10791;53.108;18.326;2024-01-10T04:58:17;-3.20;99.90
21267;DHT22;10791;53.108;18.326;2024-01-10T05:03:20;-3.30;99.90
21267;DHT22;10791;53.108;18.326;2024-01-10T05:08:23;-3.30;99.90
21267;DHT22;10791;53.108;18.326;2024-01-10T05:13:27;-3.30;99.90
21267;DHT22;10791;53.108;18.326;2024-01-10T05:18:30;-3.30;99.90
21267;DHT22;10791;53.108;18.326;2024-01-10T05:23:33;-3.40;99.90
21267;DHT22;10791;53.108;18.326;2024-01-10T05:28:36;-3.40;99.90
21267;DHT22;10791;53.108;18.326;2024-01-10T05:33:39;-3.30;99.90
21267;DHT22;10791;53.108;18.326;2024-01-10T05:38:45;-3.40;99.90
21267;DHT22;10791;53.108;18.326;2024-01-10T05:43:48;-3.50;99.90
21267;DHT22;10791;53.108;18.326;2024-01-10T05:48:51;-3.50;99.90
21267;DHT22;10791;53.108;18.326;2024-01-10T05:53:54;-3.50;99.90
21267;DHT22;10791;53.108;18.326;2024-01-10T05:58:57;-3.50;99.90
21267;DHT22;10791;53.108;18.326;2024-01-10T06:04:01;-3.50;99.90
21267;DHT22;10791;53.108;18.326;2024-01-10T06:09:04;-3.50;99.90
21267;DHT22;10791;53.108;18.326;2024-01-10T06:14:07;-3.50;99.90
21267;DHT22;10791;53.108;18.326;2024-01-10T06:19:12;-3.50;99.90
21267;DHT22;10791;53.108;18.326;2024-01-10T06:24:15;-3.50;99.90
21267;DHT22;10791;53.108;18.326;2024-01-10T06:29:18;-3.50;99.90
21267;DHT22;10791;53.108;18.326;2024-01-10T06:34:22;-3.50;99.90
21267;DHT22;10791;53.108;18.326;2024-01-10T06:39:25;-3.40;99.90
21267;DHT22;10791;53.108;18.326;2024-01-10T06:44:30;-3.40;99.90
21267;DHT22;10791;53.108;18.326;2024-01-10T06:49:34;-3.40;99.90
21267;DHT22;10791;53.108;18.326;2024-01-10T06:54:37;-3.30;99.90
21267;DHT22;10791;53.108;18.326;2024-01-10T06:59:41;-3.30;99.90
21267;DHT22;10791;53.108;18.326;2024-01-10T07:04:44;-3.20;99.90
21267;DHT22;10791;53.108;18.326;2024-01-10T07:09:50;-3.20;99.90
21267;DHT22;10791;53.108;18.326;2024-01-10T07:14:54;-3.20;99.90
21267;DHT22;10791;53.108;18.326;2024-01-10T07:19:57;-3.20;99.90
21267;DHT22;10791;53.108;18.326;2024-01-10T07:25:02;-3.20;99.90
21267;DHT22;10791;53.108;18.326;2024-01-10T07:30:08;-3.20;99.90
21267;DHT22;10791;53.108;18.326;2024-01-10T07:35:17;-3.10;99.90
21267;DHT22;10791;53.108;18.326;2024-01-10T07:40:20;-3.10;99.90
21267;DHT22;10791;53.108;18.326;2024-01-10T07:45:23;-3.00;99.90
21267;DHT22;10791;53.108;18.326;2024-01-10T07:50:29;-3.00;99.90
21267;DHT22;10791;53.108;18.326;2024-01-10T07:55:33;-3.00;99.90
21267;DHT22;10791;53.108;18.326;2024-01-10T08:00:37;-2.90;99.90
21267;DHT22;10791;53.108;18.326;2024-01-10T08:05:46;-2.90;99.90
21267;DHT22;10791;53.108;18.326;2024-01-10T08:10:56;-2.80;99.90
21267;DHT22;10791;53.108;18.326;2024-01-10T08:16:00;-2.80;99.90
21267;DHT22;10791;53.108;18.326;2024-01-10T08:21:04;-2.80;99.90
21267;DHT22;10791;53.108;18.326;2024-01-10T08:26:10;-2.70;99.90
21267;DHT22;10791;53.108;18.326;2024-01-10T08:31:17;-2.70;99.90
21267;DHT22;10791;53.108;18.326;2024-01-10T08:36:22;-2.60;99.90
21267;DHT22;10791;53.108;18.326;2024-01-10T08:41:28;-2.60;99.90
21267;DHT22;10791;53.108;18.326;2024-01-10T08:46:32;-2.60;99.90
21267;DHT22;10791;53.108;18.326;2024-01-10T08:51:35;-2.50;99.90
21267;DHT22;10791;53.108;18.326;2024-01-10T08:56:41;-2.50;99.90
21267;DHT22;10791;53.108;18.326;2024-01-10T09:01:50;-2.40;99.90
21267;DHT22;10791;53.108;18.326;2024-01-10T09:06:55;-2.40;99.90
21267;DHT22;10791;53.108;18.326;2024-01-10T09:11:59;-2.40;99.90
21267;DHT22;10791;53.108;18.326;2024-01-10T09:17:03;-2.30;99.90
21267;DHT22;10791;53.108;18.326;2024-01-10T09:22:08;-2.20;99.90
21267;DHT22;10791;53.108;18.326;2024-01-10T09:27:11;-2.20;99.90
21267;DHT22;10791;53.108;18.326;2024-01-10T09:32:14;-2.20;99.90
21267;DHT22;10791;53.108;18.326;2024-01-10T09:37:18;-2.00;99.90
21267;DHT22;10791;53.108;18.326;2024-01-10T09:42:22;-2.00;99.90
21267;DHT22;10791;53.108;18.326;2024-01-10T09:47:28;-2.00;99.90
21267;DHT22;10791;53.108;18.326;2024-01-10T09:52:41;-2.00;99.90
21267;DHT22;10791;53.108;18.326;2024-01-10T09:57:45;-1.90;99.90
21267;DHT22;10791;53.108;18.326;2024-01-10T10:02:49;-1.80;99.90
21267;DHT22;10791;53.108;18.326;2024-01-10T10:07:54;-1.70;99.90
21267;DHT22;10791;53.108;18.326;2024-01-10T10:12:58;-1.70;99.90
21267;DHT22;10791;53.108;18.326;2024-01-10T10:18:01;-1.60;99.90
21267;DHT22;10791;53.108;18.326;2024-01-10T10:23:09;-1.60;99.90
21267;DHT22;10791;53.108;18.326;2024-01-10T10:28:20;-1.60;99.90
21267;DHT22;10791;53.108;18.326;2024-01-10T10:33:34;-1.60;99.90
21267;DHT22;10791;53.108;18.326;2024-01-10T10:38:37;-1.50;99.90
21267;DHT22;10791;53.108;18.326;2024-01-10T10:43:41;-1.40;99.90
21267;DHT22;10791;53.108;18.326;2024-01-10T10:48:45;-1.50;99.90
21267;DHT22;10791;53.108;18.326;2024-01-10T10:53:49;-1.50;99.90
21267;DHT22;10791;53.108;18.326;2024-01-10T10:58:53;-1.40;99.90
21267;DHT22;10791;53.108;18.326;2024-01-10T11:03:58;-1.40;99.90
21267;DHT22;10791;53.108;18.326;2024-01-10T11:09:06;-1.40;99.90
21267;DHT22;10791;53.108;18.326;2024-01-10T11:14:43;-1.40;99.90
21267;DHT22;10791;53.108;18.326;2024-01-10T11:25:13;-1.50;99.90
21267;DHT22;10791;53.108;18.326;2024-01-10T11:30:47;-1.50;99.90
21267;DHT22;10791;53.108;18.326;2024-01-10T11:36:14;-1.50;99.90
21267;DHT22;10791;53.108;18.326;2024-01-10T11:41:32;-1.50;99.90
21267;DHT22;10791;53.108;18.326;2024-01-10T11:51:56;-1.50;99.90
21267;DHT22;10791;53.108;18.326;2024-01-10T11:57:01;-1.60;99.90
21267;DHT22;10791;53.108;18.326;2024-01-10T12:02:05;-1.60;99.90
21267;DHT22;10791;53.108;18.326;2024-01-10T12:07:09;-1.60;99.90
21267;DHT22;10791;53.108;18.326;2024-01-10T12:12:13;-1.60;99.90
21267;DHT22;10791;53.108;18.326;2024-01-10T12:17:16;-1.50;99.90
21267;DHT22;10791;53.108;18.326;2024-01-10T12:22:22;-1.60;99.90
21267;DHT22;10791;53.108;18.326;2024-01-10T12:27:26;-1.60;99.90
21267;DHT22;10791;53.108;18.326;2024-01-10T12:32:32;-1.70;99.90
21267;DHT22;10791;53.108;18.326;2024-01-10T12:37:35;-1.70;99.90
21267;DHT22;10791;53.108;18.326;2024-01-10T12:42:39;-1.70;99.90
21267;DHT22;10791;53.108;18.326;2024-01-10T12:47:42;-1.80;99.90
21267;DHT22;10791;53.108;18.326;2024-01-10T12:52:45;-1.70;99.90
21267;DHT22;10791;53.108;18.326;2024-01-10T12:57:50;-1.80;99.90
21267;DHT22;10791;53.108;18.326;2024-01-10T13:02:53;-1.80;99.90
21267;DHT22;10791;53.108;18.326;2024-01-10T13:07:57;-1.80;99.90
21267;DHT22;10791;53.108;18.326;2024-01-10T13:13:01;-1.80;99.90
21267;DHT22;10791;53.108;18.326;2024-01-10T13:18:04;-1.90;99.90
21267;DHT22;10791;53.108;18.326;2024-01-10T13:23:08;-1.90;99.90
21267;DHT22;10791;53.108;18.326;2024-01-10T13:28:12;-2.00;99.90
21267;DHT22;10791;53.108;18.326;2024-01-10T13:33:15;-2.00;99.90
21267;DHT22;10791;53.108;18.326;2024-01-10T13:38:19;-2.00;99.90
21267;DHT22;10791;53.108;18.326;2024-01-10T13:43:24;-2.00;99.90
21267;DHT22;10791;53.108;18.326;2024-01-10T13:48:27;-2.10;99.90
21267;DHT22;10791;53.108;18.326;2024-01-10T13:53:31;-2.10;99.90
21267;DHT22;10791;53.108;18.326;2024-01-10T13:58:34;-2.10;99.90
21267;DHT22;10791;53.108;18.326;2024-01-10T14:03:39;-2.20;99.90
21267;DHT22;10791;53.108;18.326;2024-01-10T14:08:42;-2.30;99.90
21267;DHT22;10791;53.108;18.326;2024-01-10T14:13:48;-2.30;99.90
21267;DHT22;10791;53.108;18.326;2024-01-10T14:18:52;-2.30;99.90
21267;DHT22;10791;53.108;18.326;2024-01-10T14:23:55;-2.40;99.90
21267;DHT22;10791;53.108;18.326;2024-01-10T14:28:59;-2.50;99.90
21267;DHT22;10791;53.108;18.326;2024-01-10T14:34:03;-2.50;99.90
21267;DHT22;10791;53.108;18.326;2024-01-10T14:39:11;-2.50;99.90
21267;DHT22;10791;53.108;18.326;2024-01-10T14:44:18;-2.50;99.90
21267;DHT22;10791;53.108;18.326;2024-01-10T14:49:22;-2.60;99.90
21267;DHT22;10791;53.108;18.326;2024-01-10T14:54:26;-2.60;99.90
21267;DHT22;10791;53.108;18.326;2024-01-10T14:59:29;-2.50;99.90
21267;DHT22;10791;53.108;18.326;2024-01-10T15:04:46;-2.50;99.90
21267;DHT22;10791;53.108;18.326;2024-01-10T15:09:50;-2.50;99.90
21267;DHT22;10791;53.108;18.326;2024-01-10T15:14:54;-2.50;99.90
21267;DHT22;10791;53.108;18.326;2024-01-10T15:19:57;-2.60;99.90
21267;DHT22;10791;53.108;18.326;2024-01-10T15:25:00;-2.60;99.90
21267;DHT22;10791;53.108;18.326;2024-01-10T15:30:05;-2.60;99.90
21267;DHT22;10791;53.108;18.326;2024-01-10T15:35:19;-2.70;99.90
21267;DHT22;10791;53.108;18.326;2024-01-10T15:40:22;-2.80;99.90
21267;DHT22;10791;53.108;18.326;2024-01-10T15:45:26;-2.80;99.90
21267;DHT22;10791;53.108;18.326;2024-01-10T15:50:31;-2.80;99.90
21267;DHT22;10791;53.108;18.326;2024-01-10T15:55:35;-2.90;99.90
21267;DHT22;10791;53.108;18.326;2024-01-10T16:00:40;-2.90;99.90
21267;DHT22;10791;53.108;18.326;2024-01-10T16:05:48;-2.90;99.90
21267;DHT22;10791;53.108;18.326;2024-01-10T16:10:56;-2.90;99.90
21267;DHT22;10791;53.108;18.326;2024-01-10T16:16:00;-2.90;99.90
21267;DHT22;10791;53.108;18.326;2024-01-10T16:21:08;-2.90;99.90
21267;DHT22;10791;53.108;18.326;2024-01-10T16:26:12;-2.90;99.90
21267;DHT22;10791;53.108;18.326;2024-01-10T16:31:17;-2.90;99.90
21267;DHT22;10791;53.108;18.326;2024-01-10T16:36:23;-2.90;99.90
21267;DHT22;10791;53.108;18.326;2024-01-10T16:41:27;-2.90;99.90
21267;DHT22;10791;53.108;18.326;2024-01-10T16:46:31;-2.90;99.90
21267;DHT22;10791;53.108;18.326;2024-01-10T16:51:37;-2.90;99.90
21267;DHT22;10791;53.108;18.326;2024-01-10T16:56:42;-2.90;99.90
21267;DHT22;10791;53.108;18.326;2024-01-10T17:01:50;-2.90;99.90
21267;DHT22;10791;53.108;18.326;2024-01-10T17:06:55;-2.90;99.90
21267;DHT22;10791;53.108;18.326;2024-01-10T17:12:00;-2.90;99.90
21267;DHT22;10791;53.108;18.326;2024-01-10T17:17:07;-2.90;99.90
21267;DHT22;10791;53.108;18.326;2024-01-10T17:22:15;-2.90;99.90
21267;DHT22;10791;53.108;18.326;2024-01-10T17:27:20;-2.90;99.90
21267;DHT22;10791;53.108;18.326;2024-01-10T17:32:29;-2.90;99.90
21267;DHT22;10791;53.108;18.326;2024-01-10T17:37:35;-3.00;99.90
21267;DHT22;10791;53.108;18.326;2024-01-10T17:42:43;-2.90;99.90
21267;DHT22;10791;53.108;18.326;2024-01-10T17:47:52;-2.90;99.90
21267;DHT22;10791;53.108;18.326;2024-01-10T17:53:03;-3.00;99.90
21267;DHT22;10791;53.108;18.326;2024-01-10T17:58:12;-3.00;99.90
21267;DHT22;10791;53.108;18.326;2024-01-10T18:03:16;-3.00;99.90
21267;DHT22;10791;53.108;18.326;2024-01-10T18:08:25;-3.00;99.90
21267;DHT22;10791;53.108;18.326;2024-01-10T18:13:33;-2.90;99.90
21267;DHT22;10791;53.108;18.326;2024-01-10T18:18:38;-3.00;99.90
21267;DHT22;10791;53.108;18.326;2024-01-10T18:23:44;-2.90;99.90
21267;DHT22;10791;53.108;18.326;2024-01-10T18:28:52;-3.00;99.90
21267;DHT22;10791;53.108;18.326;2024-01-10T18:34:04;-3.00;99.90
21267;DHT22;10791;53.108;18.326;2024-01-10T18:39:11;-3.00;99.90
21267;DHT22;10791;53.108;18.326;2024-01-10T18:44:20;-3.00;99.90
21267;DHT22;10791;53.108;18.326;2024-01-10T18:49:29;-3.00;99.90
21267;DHT22;10791;53.108;18.326;2024-01-10T18:54:39;-2.90;99.90
21267;DHT22;10791;53.108;18.326;2024-01-10T19:00:09;-2.90;99.90
21267;DHT22;10791;53.108;18.326;2024-01-10T19:05:22;-2.90;99.90
21267;DHT22;10791;53.108;18.326;2024-01-10T19:10:28;-2.90;99.90
21267;DHT22;10791;53.108;18.326;2024-01-10T19:15:35;-2.90;99.90
21267;DHT22;10791;53.108;18.326;2024-01-10T19:20:41;-3.00;99.90
21267;DHT22;10791;53.108;18.326;2024-01-10T19:25:46;-3.00;99.90
21267;DHT22;10791;53.108;18.326;2024-01-10T19:30:53;-2.90;99.90
21267;DHT22;10791;53.108;18.326;2024-01-10T19:36:06;-2.90;99.90
21267;DHT22;10791;53.108;18.326;2024-01-10T19:41:24;-2.90;99.90
21267;DHT22;10791;53.108;18.326;2024-01-10T19:46:32;-3.10;99.90
21267;DHT22;10791;53.108;18.326;2024-01-10T19:51:40;-3.10;99.90
21267;DHT22;10791;53.108;18.326;2024-01-10T19:56:53;-3.10;99.90
21267;DHT22;10791;53.108;18.326;2024-01-10T20:02:01;-3.10;99.90
21267;DHT22;10791;53.108;18.326;2024-01-10T20:07:12;-3.10;99.90
21267;DHT22;10791;53.108;18.326;2024-01-10T20:12:28;-3.10;99.90
21267;DHT22;10791;53.108;18.326;2024-01-10T20:17:38;-3.20;99.90
21267;DHT22;10791;53.108;18.326;2024-01-10T20:22:55;-3.20;99.90
21267;DHT22;10791;53.108;18.326;2024-01-10T20:28:13;-3.10;99.90
21267;DHT22;10791;53.108;18.326;2024-01-10T20:33:28;-3.10;99.90
21267;DHT22;10791;53.108;18.326;2024-01-10T20:38:35;-3.10;99.90
21267;DHT22;10791;53.108;18.326;2024-01-10T20:43:43;-3.10;99.90
21267;DHT22;10791;53.108;18.326;2024-01-10T20:48:49;-3.10;99.90
21267;DHT22;10791;53.108;18.326;2024-01-10T20:53:56;-3.10;99.90
21267;DHT22;10791;53.108;18.326;2024-01-10T20:59:04;-3.10;99.90
21267;DHT22;10791;53.108;18.326;2024-01-10T21:04:09;-3.10;99.90
21267;DHT22;10791;53.108;18.326;2024-01-10T21:09:16;-3.10;99.90
21267;DHT22;10791;53.108;18.326;2024-01-10T21:14:21;-3.10;99.90
21267;DHT22;10791;53.108;18.326;2024-01-10T21:19:26;-3.10;99.90
21267;DHT22;10791;53.108;18.326;2024-01-10T21:24:33;-3.10;99.90
21267;DHT22;10791;53.108;18.326;2024-01-10T21:29:37;-3.10;99.90
21267;DHT22;10791;53.108;18.326;2024-01-10T21:34:41;-3.10;99.90
21267;DHT22;10791;53.108;18.326;2024-01-10T21:39:44;-3.10;99.90
21267;DHT22;10791;53.108;18.326;2024-01-10T21:44:49;-3.00;99.90
21267;DHT22;10791;53.108;18.326;2024-01-10T21:49:54;-3.00;99.90
21267;DHT22;10791;53.108;18.326;2024-01-10T21:54:57;-3.00;99.90
21267;DHT22;10791;53.108;18.326;2024-01-10T22:00:05;-3.00;99.90
21267;DHT22;10791;53.108;18.326;2024-01-10T22:05:09;-3.00;99.90
21267;DHT22;10791;53.108;18.326;2024-01-10T22:10:14;-2.90;99.90
21267;DHT22;10791;53.108;18.326;2024-01-10T22:15:17;-2.90;99.90
21267;DHT22;10791;53.108;18.326;2024-01-10T22:20:21;-2.90;99.90
21267;DHT22;10791;53.108;18.326;2024-01-10T22:25:25;-2.90;99.90
21267;DHT22;10791;53.108;18.326;2024-01-10T22:30:28;-2.90;99.90
21267;DHT22;10791;53.108;18.326;2024-01-10T22:35:33;-2.80;99.90
21267;DHT22;10791;53.108;18.326;2024-01-10T22:40:36;-2.80;99.90
21267;DHT22;10791;53.108;18.326;2024-01-10T22:45:39;-2.80;99.90
21267;DHT22;10791;53.108;18.326;2024-01-10T22:50:42;-2.90;99.90
21267;DHT22;10791;53.108;18.326;2024-01-10T22:55:45;-2.80;99.90
21267;DHT22;10791;53.108;18.326;2024-01-10T23:00:48;-2.80;99.90
21267;DHT22;10791;53.108;18.326;2024-01-10T23:05:54;-2.80;99.90
21267;DHT22;10791;53.108;18.326;2024-01-10T23:10:58;-2.80;99.90
21267;DHT22;10791;53.108;18.326;2024-01-10T23:16:01;-2.80;99.90
21267;DHT22;10791;53.108;18.326;2024-01-10T23:21:05;-2.80;99.90
21267;DHT22;10791;53.108;18.326;2024-01-10T23:26:16;-2.80;99.90
21267;DHT22;10791;53.108;18.326;2024-01-10T23:31:21;-2.80;99.90
21267;DHT22;10791;53.108;18.326;2024-01-10T23:36:24;-2.80;99.90
21267;DHT22;10791;53.108;18.326;2024-01-10T23:41:27;-2.70;99.90
21267;DHT22;10791;53.108;18.326;2024-01-10T23:46:30;-2.80;99.90
21267;DHT22;10791;53.108;18.326;2024-01-10T23:51:33;-2.80;99.90
21267;DHT22;10791;53.108;18.326;2024-01-10T23:56:40;-2.80;99.90
